Time;durP1;ratioP1;P1;durP2;ratioP2;P2;SDS_P1;SDS_P2;PMS_P1;PMS_P2;Temp;Humidity;BMP_temperature;BMP_pressure;BME280_temperature;BME280_humidity;BME280_pressure;Samples;Min_cycle;Max_cycle;Signal;HPM_P1;HPM_P2
2023/05/27 00:00:03;;;;;;;7.75;1.85;;;7.90;99.90;;;;;;5051890;28;20644;-83
2023/05/27 00:02:28;;;;;;;8.32;2.50;;;7.60;99.90;;;;;;5052914;28;20078;-82
2023/05/27 00:04:54;;;;;;;5.95;1.60;;;7.60;99.90;;;;;;5069094;28;20480;-82
2023/05/27 00:07:20;;;;;;;7.85;1.75;;;8.00;99.90;;;;;;5051498;28;20040;-82
2023/05/27 00:09:46;;;;;;;7.13;2.22;;;7.50;99.90;;;;;;5069322;28;20036;-82
2023/05/27 00:12:11;;;;;;;6.68;2.10;;;7.50;99.90;;;;;;5069282;28;20498;-82
2023/05/27 00:14:37;;;;;;;7.00;2.10;;;7.50;99.90;;;;;;5036167;28;20491;-82
2023/05/27 00:17:03;;;;;;;9.38;1.73;;;7.50;99.90;;;;;;5034845;28;20488;-82
2023/05/27 00:19:30;;;;;;;4.57;2.00;;;7.50;99.90;;;;;;5036315;28;20052;-83
2023/05/27 00:21:57;;;;;;;4.93;2.28;;;7.50;99.90;;;;;;5068815;28;20051;-82
2023/05/27 00:24:22;;;;;;;10.48;2.35;;;8.00;99.90;;;;;;5068696;28;20598;-82
2023/05/27 00:26:49;;;;;;;10.27;2.33;;;7.50;99.90;;;;;;5052598;28;20132;-82
2023/05/27 00:29:16;;;;;;;8.98;2.38;;;7.40;99.90;;;;;;5068294;28;20075;-82
2023/05/27 00:31:42;;;;;;;8.88;2.17;;;8.50;99.90;;;;;;5068403;28;20040;-82
2023/05/27 00:34:08;;;;;;;6.40;1.67;;;8.30;99.90;;;;;;5068253;28;20051;-82
2023/05/27 00:36:33;;;;;;;8.40;2.00;;;8.20;99.90;;;;;;5052189;28;20486;-81
2023/05/27 00:39:01;;;;;;;13.35;2.15;;;8.00;99.90;;;;;;5051288;28;20039;-82
2023/05/27 00:41:27;;;;;;;8.25;2.92;;;8.60;99.90;;;;;;5068352;28;20060;-82
2023/05/27 00:43:53;;;;;;;13.05;2.00;;;7.40;99.90;;;;;;5051942;28;20144;-82
2023/05/27 00:46:19;;;;;;;11.40;2.03;;;8.10;99.90;;;;;;5067926;28;20044;-82
2023/05/27 00:48:47;;;;;;;7.05;1.60;;;7.30;99.90;;;;;;5051496;28;20040;-82
2023/05/27 00:51:13;;;;;;;4.93;1.80;;;8.80;99.90;;;;;;5067344;28;20048;-82
2023/05/27 00:53:43;;;;;;;11.10;2.15;;;7.20;99.90;;;;;;5068187;28;20465;-82
2023/05/27 00:56:10;;;;;;;6.30;1.73;;;8.20;99.90;;;;;;5051004;28;20048;-81
2023/05/27 00:58:36;;;;;;;9.88;2.33;;;7.10;99.90;;;;;;5068442;28;20135;-81
2023/05/27 01:01:03;;;;;;;6.95;2.40;;;7.10;99.90;;;;;;5068017;28;20054;-81
2023/05/27 01:03:35;;;;;;;6.75;1.90;;;7.90;99.90;;;;;;5051525;28;20131;-81
2023/05/27 01:06:31;;;;;;;8.02;2.08;;;8.10;99.90;;;;;;5067731;28;20100;-81
2023/05/27 01:09:31;;;;;;;6.80;2.38;;;7.20;99.90;;;;;;5066601;28;20103;-81
2023/05/27 01:12:02;;;;;;;10.25;2.47;;;7.10;99.90;;;;;;5051004;28;20079;-81
2023/05/27 01:14:32;;;;;;;4.68;2.17;;;7.10;99.90;;;;;;5068105;28;20127;-81
2023/05/27 01:17:01;;;;;;;9.40;2.10;;;7.10;99.90;;;;;;5066928;28;20444;-81
2023/05/27 01:19:44;;;;;;;9.05;2.17;;;7.50;99.90;;;;;;5067835;28;20277;-81
2023/05/27 01:22:13;;;;;;;7.22;2.15;;;7.10;99.90;;;;;;5068228;28;20044;-81
2023/05/27 01:24:41;;;;;;;11.27;2.25;;;7.20;99.90;;;;;;5067162;28;20090;-81
2023/05/27 01:27:08;;;;;;;9.50;1.83;;;8.30;99.90;;;;;;5067327;28;20048;-81
2023/05/27 01:29:34;;;;;;;8.07;1.95;;;7.30;99.90;;;;;;5050320;28;20089;-81
2023/05/27 01:32:17;;;;;;;18.35;2.53;;;7.40;99.90;;;;;;5050932;28;20492;-81
2023/05/27 01:35:11;;;;;;;6.72;2.83;;;6.50;99.90;;;;;;5050300;28;20039;-81
2023/05/27 01:37:40;;;;;;;10.10;2.65;;;7.50;99.90;;;;;;5050469;28;20044;-81
2023/05/27 01:40:08;;;;;;;10.80;2.47;;;7.50;99.90;;;;;;5067089;28;20047;-81
2023/05/27 01:42:36;;;;;;;9.32;3.05;;;7.60;99.90;;;;;;5066385;28;20036;-81
2023/05/27 01:45:05;;;;;;;15.30;2.55;;;7.60;99.90;;;;;;5067792;28;20135;-82
2023/05/27 01:47:31;;;;;;;11.20;2.50;;;7.60;99.90;;;;;;5067121;28;20174;-81
2023/05/27 01:49:56;;;;;;;7.38;2.35;;;8.80;99.90;;;;;;5050818;28;20244;-81
2023/05/27 01:52:22;;;;;;;9.85;2.22;;;8.00;99.90;;;;;;5050294;28;20051;-81
2023/05/27 01:54:48;;;;;;;13.38;2.42;;;7.70;99.90;;;;;;5066626;28;20066;-81
2023/05/27 01:57:14;;;;;;;9.80;2.78;;;7.70;99.90;;;;;;5033608;28;20063;-81
2023/05/27 01:59:40;;;;;;;6.75;1.85;;;7.60;99.90;;;;;;5066236;28;20044;-81
2023/05/27 02:02:06;;;;;;;6.72;2.10;;;8.30;99.90;;;;;;5033981;28;20083;-81
2023/05/27 02:04:31;;;;;;;8.98;2.13;;;7.60;99.90;;;;;;5033743;28;20088;-81
2023/05/27 02:06:57;;;;;;;10.40;1.98;;;7.50;99.90;;;;;;5050182;28;20395;-81
2023/05/27 02:09:23;;;;;;;12.70;2.75;;;8.00;99.90;;;;;;5050934;28;20054;-81
2023/05/27 02:11:48;;;;;;;4.30;1.85;;;9.20;99.90;;;;;;5066599;28;20118;-81
2023/05/27 02:14:14;;;;;;;10.32;2.33;;;7.50;99.90;;;;;;5033912;28;20063;-81
2023/05/27 02:16:40;;;;;;;12.93;2.72;;;7.30;99.90;;;;;;5067002;28;20123;-81
2023/05/27 02:19:05;;;;;;;10.65;2.20;;;7.30;99.90;;;;;;5067497;28;20043;-81
2023/05/27 02:21:31;;;;;;;10.10;2.35;;;8.90;99.90;;;;;;5049938;28;20380;-81
2023/05/27 02:23:58;;;;;;;4.63;1.80;;;7.90;99.90;;;;;;5033635;28;20109;-81
2023/05/27 02:26:23;;;;;;;10.43;2.53;;;8.10;99.90;;;;;;5066996;28;20117;-81
2023/05/27 02:28:49;;;;;;;10.30;2.38;;;7.60;99.90;;;;;;5050016;28;20032;-81
2023/05/27 02:31:15;;;;;;;8.85;2.28;;;8.50;99.90;;;;;;5070162;28;20517;-81
2023/05/27 02:33:41;;;;;;;12.40;2.20;;;8.10;99.90;;;;;;5053750;28;20035;-81
2023/05/27 02:36:07;;;;;;;13.00;2.30;;;8.60;99.90;;;;;;5038046;28;20104;-81
2023/05/27 02:38:32;;;;;;;11.30;2.08;;;7.70;99.90;;;;;;5053517;28;20479;-81
2023/05/27 02:40:58;;;;;;;11.68;2.45;;;7.90;99.90;;;;;;5070677;28;20048;-81
2023/05/27 02:43:24;;;;;;;10.38;1.95;;;7.70;99.90;;;;;;5070908;28;20040;-81
2023/05/27 02:45:50;;;;;;;9.57;2.15;;;9.10;99.90;;;;;;5070387;28;20040;-81
2023/05/27 02:48:15;;;;;;;11.90;1.95;;;8.60;99.90;;;;;;5071251;28;20048;-81
2023/05/27 02:50:42;;;;;;;8.18;2.10;;;7.80;99.90;;;;;;5070205;28;20040;-81
2023/05/27 02:53:08;;;;;;;10.90;2.08;;;7.80;99.90;;;;;;5053726;28;20576;-81
2023/05/27 02:55:33;;;;;;;10.20;2.22;;;7.80;99.90;;;;;;5037186;28;20135;-81
2023/05/27 02:57:59;;;;;;;6.72;2.22;;;7.70;99.90;;;;;;5070404;28;20614;-81
2023/05/27 03:00:25;;;;;;;8.13;2.30;;;7.70;99.90;;;;;;5053707;28;20044;-81
2023/05/27 03:02:51;;;;;;;11.13;2.15;;;7.90;99.90;;;;;;5070153;28;20079;-81
2023/05/27 03:05:17;;;;;;;8.15;2.53;;;8.70;99.90;;;;;;5070275;28;20036;-81
2023/05/27 03:07:42;;;;;;;13.27;2.17;;;7.60;99.90;;;;;;5036765;28;20040;-81
2023/05/27 03:10:08;;;;;;;6.78;2.45;;;7.60;99.90;;;;;;5037443;28;20048;-81
2023/05/27 03:12:34;;;;;;;12.55;2.38;;;7.60;99.90;;;;;;5053443;28;20139;-81
2023/05/27 03:15:00;;;;;;;13.77;2.00;;;7.80;99.90;;;;;;5070642;28;20135;-81
2023/05/27 03:17:26;;;;;;;8.27;2.08;;;7.90;99.90;;;;;;5069825;28;20533;-81
2023/05/27 03:19:52;;;;;;;5.55;1.92;;;9.10;99.90;;;;;;5053241;28;20083;-81
2023/05/27 03:22:18;;;;;;;9.45;1.73;;;7.90;99.90;;;;;;5070294;28;20084;-81
2023/05/27 03:24:44;;;;;;;7.35;2.00;;;7.60;99.90;;;;;;5053309;28;20047;-81
2023/05/27 03:27:10;;;;;;;12.77;2.38;;;7.70;99.90;;;;;;5053237;28;20124;-81
2023/05/27 03:29:36;;;;;;;10.32;2.40;;;8.50;99.90;;;;;;5052671;28;20135;-80
2023/05/27 03:32:02;;;;;;;6.97;2.55;;;8.50;99.90;;;;;;5036745;28;20131;-82
2023/05/27 03:34:28;;;;;;;9.65;2.63;;;7.70;99.90;;;;;;5053208;28;20184;-81
2023/05/27 03:36:53;;;;;;;5.22;2.63;;;7.80;99.90;;;;;;5069550;28;20044;-81
2023/05/27 03:39:19;;;;;;;11.35;2.70;;;7.80;99.90;;;;;;5053378;28;20108;-81
2023/05/27 03:41:45;;;;;;;11.38;2.20;;;7.90;99.90;;;;;;5036082;28;20040;-81
2023/05/27 03:44:10;;;;;;;11.70;2.25;;;7.80;99.90;;;;;;5070046;28;20120;-81
2023/05/27 03:46:36;;;;;;;11.95;2.47;;;7.90;99.90;;;;;;5053078;28;20197;-81
2023/05/27 03:49:02;;;;;;;11.00;2.03;;;8.00;99.90;;;;;;5053457;28;20471;-81
2023/05/27 03:51:28;;;;;;;10.25;2.20;;;8.00;99.90;;;;;;5052520;28;20044;-81
2023/05/27 03:53:53;;;;;;;10.00;2.50;;;8.90;99.90;;;;;;5052714;28;20143;-81
2023/05/27 03:56:19;;;;;;;11.57;2.45;;;9.20;99.90;;;;;;5053172;28;20052;-81
2023/05/27 03:58:45;;;;;;;9.18;2.67;;;8.30;99.90;;;;;;5053365;28;20036;-81
2023/05/27 04:01:11;;;;;;;10.05;2.53;;;9.80;99.90;;;;;;5070032;28;20432;-81
2023/05/27 04:03:39;;;;;;;14.98;3.20;;;8.40;99.90;;;;;;5069954;28;20051;-81
2023/05/27 04:06:06;;;;;;;13.60;2.40;;;9.00;99.90;;;;;;5053963;28;20040;-81
2023/05/27 04:08:32;;;;;;;9.85;2.17;;;8.50;99.90;;;;;;5053370;28;20044;-80
2023/05/27 04:10:57;;;;;;;8.18;2.03;;;9.30;99.90;;;;;;5070631;28;20054;-81
2023/05/27 04:13:23;;;;;;;8.48;2.10;;;9.80;99.90;;;;;;5053629;28;20476;-82
2023/05/27 04:15:49;;;;;;;12.10;2.63;;;8.70;99.90;;;;;;5036954;28;20044;-82
2023/05/27 04:18:15;;;;;;;14.88;2.50;;;9.10;99.90;;;;;;5053689;28;20063;-81
2023/05/27 04:20:42;;;;;;;9.38;2.60;;;8.90;99.90;;;;;;5069802;28;20079;-81
2023/05/27 04:23:11;;;;;;;8.27;2.13;;;8.90;99.90;;;;;;5053524;28;20040;-82
2023/05/27 04:25:37;;;;;;;11.20;2.35;;;9.00;99.90;;;;;;5053116;28;20044;-81
2023/05/27 04:28:04;;;;;;;18.70;2.80;;;9.10;99.90;;;;;;5053303;28;20047;-81
2023/05/27 04:30:31;;;;;;;13.98;2.08;;;9.20;99.90;;;;;;5070098;28;20139;-82
2023/05/27 04:32:56;;;;;;;14.02;2.30;;;9.70;99.90;;;;;;5053333;28;20052;-82
2023/05/27 04:35:23;;;;;;;8.23;2.47;;;9.30;99.90;;;;;;5053186;28;20040;-81
2023/05/27 04:37:49;;;;;;;12.95;2.90;;;10.20;99.90;;;;;;5069694;28;20075;-82
2023/05/27 04:40:14;;;;;;;14.68;2.30;;;9.40;99.90;;;;;;5070264;28;20028;-80
2023/05/27 04:42:40;;;;;;;13.02;2.50;;;9.50;99.90;;;;;;5069316;28;20079;-81
2023/05/27 04:45:07;;;;;;;14.65;2.65;;;11.20;99.90;;;;;;5037305;28;20226;-81
2023/05/27 04:47:33;;;;;;;7.90;2.35;;;9.60;99.90;;;;;;5071164;28;20047;-81
2023/05/27 04:50:02;;;;;;;10.60;2.63;;;9.70;99.90;;;;;;5037503;28;20467;-81
2023/05/27 04:52:28;;;;;;;7.97;2.35;;;9.70;99.90;;;;;;5069511;28;20048;-80
2023/05/27 04:54:54;;;;;;;13.35;3.17;;;9.70;99.90;;;;;;5053406;28;20094;-81
2023/05/27 04:57:21;;;;;;;10.40;2.08;;;9.70;99.90;;;;;;5070215;28;20063;-81
2023/05/27 05:00:18;;;;;;;9.70;3.42;;;9.90;99.90;;;;;;5069735;28;20613;-81
2023/05/27 05:02:47;;;;;;;11.13;2.50;;;9.80;99.90;;;;;;5069669;28;20044;-81
2023/05/27 05:05:12;;;;;;;6.47;1.70;;;10.60;99.90;;;;;;5052687;28;20043;-81
2023/05/27 05:07:40;;;;;;;15.32;2.53;;;9.80;99.90;;;;;;5052744;28;20150;-80
2023/05/27 05:10:11;;;;;;;9.55;2.40;;;9.80;99.90;;;;;;5069114;28;20082;-82
2023/05/27 05:12:37;;;;;;;9.00;1.95;;;10.40;99.90;;;;;;5068677;28;20036;-82
2023/05/27 05:15:04;;;;;;;12.88;2.67;;;9.90;99.90;;;;;;5052895;28;20515;-83
2023/05/27 05:17:30;;;;;;;10.80;2.10;;;9.90;99.90;;;;;;5068960;28;20150;-82
2023/05/27 05:19:56;;;;;;;7.95;2.13;;;11.20;99.90;;;;;;5069043;28;20032;-81
2023/05/27 05:22:26;;;;;;;15.35;1.90;;;10.80;99.90;;;;;;5019499;28;20557;-82
2023/05/27 05:24:51;;;;;;;7.78;2.05;;;10.00;99.90;;;;;;5051906;28;20051;-82
2023/05/27 05:27:17;;;;;;;5.88;1.40;;;10.00;99.90;;;;;;5069257;28;20161;-82
2023/05/27 05:29:44;;;;;;;5.68;2.53;;;10.10;99.90;;;;;;5051522;28;20083;-81
2023/05/27 05:32:13;;;;;;;14.65;2.45;;;10.10;99.90;;;;;;5052693;28;20448;-82
2023/05/27 05:34:39;;;;;;;7.60;2.20;;;10.80;99.90;;;;;;5036125;28;20036;-82
2023/05/27 05:37:04;;;;;;;10.65;2.13;;;10.20;99.90;;;;;;5052958;28;20047;-83
2023/05/27 05:39:31;;;;;;;8.98;1.90;;;10.40;99.90;;;;;;5052538;28;20051;-82
2023/05/27 05:41:57;;;;;;;9.38;2.30;;;10.40;99.90;;;;;;5052184;28;20028;-82
2023/05/27 05:44:23;;;;;;;8.13;1.85;;;10.70;99.90;;;;;;5069523;28;20157;-82
2023/05/27 05:46:49;;;;;;;11.13;2.05;;;10.90;99.90;;;;;;5068473;28;20067;-82
2023/05/27 05:49:15;;;;;;;11.52;2.45;;;11.10;99.90;;;;;;5068856;28;20093;-82
2023/05/27 05:51:41;;;;;;;8.25;2.38;;;10.50;99.90;;;;;;5068287;28;20097;-82
2023/05/27 05:54:07;;;;;;;12.60;2.05;;;10.60;99.90;;;;;;5052011;28;20052;-83
2023/05/27 05:56:33;;;;;;;11.25;2.53;;;10.70;99.90;;;;;;5069393;28;20113;-83
2023/05/27 05:58:59;;;;;;;8.38;1.88;;;10.90;99.90;;;;;;5052312;28;20435;-83
2023/05/27 06:01:26;;;;;;;10.50;3.05;;;11.00;99.90;;;;;;5051819;28;20066;-83
2023/05/27 06:03:53;;;;;;;11.48;2.97;;;11.10;99.90;;;;;;5051933;28;20040;-82
2023/05/27 06:06:19;;;;;;;8.77;2.42;;;11.30;99.90;;;;;;5051308;28;20047;-83
2023/05/27 06:08:45;;;;;;;12.38;2.15;;;11.40;99.90;;;;;;5051909;28;20044;-82
2023/05/27 06:11:11;;;;;;;10.80;2.33;;;11.50;99.90;;;;;;5051441;28;20048;-83
2023/05/27 06:13:37;;;;;;;9.57;2.63;;;11.60;99.90;;;;;;5067984;28;20068;-83
2023/05/27 06:16:03;;;;;;;11.05;2.08;;;11.70;99.90;;;;;;5034044;28;20542;-83
2023/05/27 06:18:28;;;;;;;13.80;3.17;;;11.80;99.90;;;;;;5050735;28;20093;-84
2023/05/27 06:20:54;;;;;;;14.15;2.45;;;11.90;99.90;;;;;;5050356;28;20044;-83
2023/05/27 06:23:20;;;;;;;13.73;2.65;;;11.90;99.90;;;;;;5050752;28;20138;-83
2023/05/27 06:25:45;;;;;;;14.98;2.45;;;12.00;99.90;;;;;;5033880;28;20036;-82
2023/05/27 06:28:11;;;;;;;12.70;3.70;;;12.10;99.90;;;;;;5067167;28;20044;-82
2023/05/27 06:30:37;;;;;;;16.83;2.80;;;12.20;99.90;;;;;;5067248;28;20494;-83
2023/05/27 06:33:03;;;;;;;10.05;2.53;;;12.30;99.90;;;;;;5050506;28;20080;-83
2023/05/27 06:35:29;;;;;;;9.50;2.40;;;12.40;99.90;;;;;;5067252;28;20078;-82
2023/05/27 06:37:55;;;;;;;13.70;2.50;;;12.40;99.90;;;;;;5017378;28;20044;-83
2023/05/27 06:40:20;;;;;;;8.50;2.05;;;12.60;99.90;;;;;;5050359;28;20051;-82
2023/05/27 06:42:46;;;;;;;12.23;1.75;;;12.70;99.90;;;;;;5066947;28;20127;-82
2023/05/27 06:45:12;;;;;;;11.30;2.47;;;12.90;99.90;;;;;;5067418;28;20051;-83
2023/05/27 06:47:38;;;;;;;14.60;2.47;;;13.10;99.90;;;;;;5066987;28;20138;-83
2023/05/27 06:50:05;;;;;;;11.38;3.80;;;13.30;99.90;;;;;;5067465;28;20407;-82
2023/05/27 06:52:30;;;;;;;14.07;3.40;;;13.40;99.90;;;;;;5050169;28;20131;-82
2023/05/27 06:54:56;;;;;;;9.57;2.08;;;13.50;99.90;;;;;;5066982;28;20068;-83
2023/05/27 06:57:22;;;;;;;12.30;2.45;;;13.60;99.90;;;;;;5050107;28;20040;-82
2023/05/27 06:59:47;;;;;;;12.55;2.83;;;13.70;99.90;;;;;;5033878;28;20062;-82
2023/05/27 07:02:13;;;;;;;10.30;2.35;;;13.80;99.90;;;;;;5066578;28;20043;-82
2023/05/27 07:04:39;;;;;;;9.80;2.28;;;13.90;99.90;;;;;;5067552;28;20051;-83
2023/05/27 07:07:05;;;;;;;9.80;2.22;;;14.00;99.90;;;;;;5050082;28;20044;-82
2023/05/27 07:09:31;;;;;;;14.73;2.67;;;14.10;99.90;;;;;;5033422;28;20170;-83
2023/05/27 07:11:57;;;;;;;11.50;2.30;;;14.10;99.90;;;;;;5049548;28;20051;-83
2023/05/27 07:14:22;;;;;;;16.45;2.55;;;14.10;99.90;;;;;;5049678;28;20071;-82
2023/05/27 07:16:48;;;;;;;16.40;2.88;;;14.20;99.90;;;;;;5052146;28;20054;-83
2023/05/27 07:19:14;;;;;;;12.15;2.42;;;14.30;99.90;;;;;;5053425;28;20040;-83
2023/05/27 07:21:40;;;;;;;11.90;2.60;;;14.40;99.90;;;;;;5037397;28;20101;-82
2023/05/27 07:24:06;;;;;;;12.43;2.53;;;14.50;99.90;;;;;;5054035;28;20086;-83
2023/05/27 07:26:32;;;;;;;12.50;2.17;;;14.60;99.90;;;;;;5069719;28;20476;-82
2023/05/27 07:28:59;;;;;;;8.82;2.97;;;14.60;99.90;;;;;;5053635;28;20054;-82
2023/05/27 07:31:26;;;;;;;9.40;2.38;;;14.70;99.90;;;;;;5069471;28;20051;-82
2023/05/27 07:33:52;;;;;;;20.25;2.53;;;14.70;99.90;;;;;;5053508;28;20433;-82
2023/05/27 07:36:18;;;;;;;9.98;2.10;;;14.70;99.90;;;;;;5052748;28;20040;-82
2023/05/27 07:38:44;;;;;;;9.27;3.20;;;14.70;99.90;;;;;;5053527;28;20043;-81
2023/05/27 07:41:10;;;;;;;12.13;2.25;;;14.70;99.90;;;;;;5069588;28;20131;-81
2023/05/27 07:43:36;;;;;;;11.07;2.30;;;14.80;99.90;;;;;;5036810;28;20446;-81
2023/05/27 07:46:02;;;;;;;12.43;2.25;;;14.90;99.90;;;;;;5069739;28;20040;-81
2023/05/27 07:48:28;;;;;;;14.10;2.75;;;15.00;99.90;;;;;;5068948;28;20047;-82
2023/05/27 07:50:54;;;;;;;11.90;2.67;;;15.10;99.90;;;;;;5069380;28;20048;-82
2023/05/27 07:53:20;;;;;;;8.80;3.00;;;15.20;99.90;;;;;;5052182;28;20060;-82
2023/05/27 07:55:46;;;;;;;11.70;2.70;;;15.30;99.90;;;;;;5053498;28;20055;-83
2023/05/27 07:58:12;;;;;;;14.45;2.42;;;15.50;99.90;;;;;;5069115;28;20130;-82
2023/05/27 08:00:38;;;;;;;13.98;2.50;;;15.70;99.90;;;;;;5068935;28;20166;-82
2023/05/27 08:03:04;;;;;;;9.20;2.60;;;15.80;99.90;;;;;;5069298;28;20055;-82
2023/05/27 08:05:30;;;;;;;11.75;2.97;;;15.80;99.90;;;;;;5069006;28;20126;-83
2023/05/27 08:07:55;;;;;;;12.73;2.53;;;15.90;99.90;;;;;;5035791;28;20528;-84
2023/05/27 08:10:21;;;;;;;12.75;2.80;;;15.90;99.90;;;;;;5068685;28;20036;-83
2023/05/27 08:12:47;;;;;;;13.70;2.50;;;15.90;99.90;;;;;;5069203;28;20065;-82
2023/05/27 08:15:13;;;;;;;10.73;2.80;;;15.90;99.90;;;;;;5036146;28;20418;-83
2023/05/27 08:17:39;;;;;;;11.30;2.45;;;16.00;99.90;;;;;;5069000;28;20047;-82
2023/05/27 08:20:05;;;;;;;11.10;2.70;;;16.20;99.90;;;;;;5036636;28;20678;-82
2023/05/27 08:22:32;;;;;;;10.55;2.95;;;16.20;99.90;;;;;;5035669;28;20042;-83
2023/05/27 08:24:57;;;;;;;10.48;2.20;;;16.30;99.90;;;;;;5069492;28;20417;-82
2023/05/27 08:27:44;;;;;;;8.63;2.33;;;16.30;99.90;;;;;;5050759;28;20131;-83
2023/05/27 08:30:11;;;;;;;6.97;2.20;;;16.50;99.90;;;;;;5069283;28;20537;-83
2023/05/27 08:32:37;;;;;;;10.02;1.90;;;16.50;99.90;;;;;;5068560;28;20142;-84
2023/05/27 08:35:03;;;;;;;9.45;2.80;;;16.70;99.90;;;;;;5052019;28;20040;-83
2023/05/27 08:37:29;;;;;;;15.10;2.97;;;16.90;99.90;;;;;;5069487;28;20075;-83
2023/05/27 08:39:57;;;;;;;10.40;2.22;;;17.00;99.90;;;;;;5035315;28;20360;-83
2023/05/27 08:42:24;;;;;;;11.98;2.60;;;17.20;99.90;;;;;;5036249;28;20074;-82
2023/05/27 08:44:50;;;;;;;10.80;2.58;;;17.30;99.90;;;;;;5052262;28;20392;-82
2023/05/27 08:47:17;;;;;;;10.32;2.33;;;17.30;99.90;;;;;;5068696;28;20047;-83
2023/05/27 08:49:43;;;;;;;10.65;2.28;;;17.20;99.90;;;;;;5035525;28;20044;-83
2023/05/27 08:52:18;;;;;;;10.77;3.17;;;17.20;99.90;;;;;;5050921;28;20085;-82
2023/05/27 08:54:44;;;;;;;9.57;2.22;;;17.40;99.90;;;;;;5068658;28;20052;-83
2023/05/27 08:57:14;;;;;;;13.98;3.13;;;17.50;99.90;;;;;;5067887;28;20048;-83
2023/05/27 08:59:40;;;;;;;10.05;3.33;;;17.60;99.90;;;;;;5069606;28;20411;-83
2023/05/27 09:02:11;;;;;;;11.32;2.78;;;17.60;99.90;;;;;;5068402;28;20046;-83
2023/05/27 09:04:39;;;;;;;9.23;2.35;;;17.60;99.90;;;;;;5068877;28;20070;-86
2023/05/27 09:07:06;;;;;;;12.35;2.85;;;17.60;99.90;;;;;;5052615;28;20083;-87
2023/05/27 09:09:31;;;;;;;11.57;2.45;;;17.60;99.90;;;;;;5068563;28;20048;-85
2023/05/27 09:12:04;;;;;;;11.23;3.40;;;17.60;99.90;;;;;;5069418;28;20040;-84
2023/05/27 09:14:30;;;;;;;11.38;2.60;;;18.90;99.90;;;;;;5051392;28;20047;-85
2023/05/27 09:16:56;;;;;;;13.68;2.13;;;17.60;99.90;;;;;;5069395;28;20444;-85
2023/05/27 09:19:22;;;;;;;5.18;2.33;;;17.60;99.90;;;;;;5051249;28;20050;-85
2023/05/27 09:21:55;;;;;;;9.63;2.53;;;17.60;99.90;;;;;;5068851;28;20040;-85
2023/05/27 09:24:23;;;;;;;11.57;2.53;;;17.60;99.90;;;;;;5069470;28;20445;-85
2023/05/27 09:26:54;;;;;;;9.40;2.58;;;17.70;99.90;;;;;;5052192;28;20399;-85
2023/05/27 09:29:20;;;;;;;11.60;2.78;;;17.80;99.90;;;;;;5068293;28;20048;-84
2023/05/27 09:31:46;;;;;;;10.48;2.38;;;17.90;99.90;;;;;;5050612;28;20043;-85
2023/05/27 09:34:12;;;;;;;9.05;2.30;;;18.00;99.90;;;;;;5068082;28;20047;-84
2023/05/27 09:36:49;;;;;;;9.82;2.72;;;18.00;99.90;;;;;;5051005;28;20044;-85
2023/05/27 09:39:17;;;;;;;9.70;2.75;;;18.10;99.90;;;;;;5067240;28;20052;-85
2023/05/27 09:41:43;;;;;;;13.35;3.58;;;18.10;99.90;;;;;;5067828;28;20036;-83
2023/05/27 09:44:09;;;;;;;10.00;2.05;;;18.10;99.90;;;;;;5050446;28;20047;-83
2023/05/27 09:46:35;;;;;;;9.35;2.30;;;18.20;99.90;;;;;;5035067;28;20411;-83
2023/05/27 09:49:05;;;;;;;9.68;3.03;;;18.30;99.90;;;;;;5067447;28;20476;-85
2023/05/27 09:51:32;;;;;;;7.95;3.13;;;18.40;99.90;;;;;;5067933;28;20044;-83
2023/05/27 09:53:59;;;;;;;9.18;2.25;;;18.40;99.90;;;;;;5065985;28;20385;-83
2023/05/27 09:56:26;;;;;;;11.85;2.90;;;18.50;99.90;;;;;;5048579;28;20448;-84
2023/05/27 09:58:56;;;;;;;8.85;2.47;;;18.50;99.90;;;;;;5051317;28;20040;-84
2023/05/27 10:01:28;;;;;;;9.48;2.45;;;18.60;99.90;;;;;;5067176;28;20044;-85
2023/05/27 10:03:54;;;;;;;10.57;3.70;;;18.80;99.90;;;;;;5051669;28;20126;-87
2023/05/27 10:06:20;;;;;;;13.27;2.92;;;18.80;99.90;;;;;;5066897;28;20044;-85
2023/05/27 10:08:46;;;;;;;16.33;3.22;;;18.90;99.90;;;;;;5068382;28;20100;-86
2023/05/27 10:11:12;;;;;;;9.18;3.10;;;19.10;99.90;;;;;;5051135;28;20134;-86
2023/05/27 10:13:38;;;;;;;8.20;2.38;;;19.20;99.90;;;;;;5050440;28;20047;-87
2023/05/27 10:16:04;;;;;;;7.78;2.40;;;19.30;99.90;;;;;;5035206;28;20040;-88
2023/05/27 10:18:30;;;;;;;8.25;3.30;;;19.50;99.90;;;;;;5066778;28;20113;-84
2023/05/27 10:21:02;;;;;;;8.02;3.10;;;19.60;99.90;;;;;;5067506;28;20044;-85
2023/05/27 10:23:33;;;;;;;9.02;2.50;;;19.70;99.90;;;;;;5050738;28;20044;-86
2023/05/27 10:26:06;;;;;;;9.23;2.67;;;19.80;99.90;;;;;;5068882;28;20068;-87
2023/05/27 10:28:39;;;;;;;8.23;2.65;;;19.80;99.90;;;;;;5070401;28;20118;-84
2023/05/27 10:31:14;;;;;;;14.13;2.80;;;19.80;99.90;;;;;;5068983;28;20048;-86
2023/05/27 10:33:43;;;;;;;20.27;5.78;;;19.80;99.90;;;;;;5089032;28;20337;-85
2023/05/27 10:36:14;;;;;;;30.83;9.27;;;19.90;99.90;;;;;;5071664;28;20055;-81
2023/05/27 10:38:42;;;;;;;84.90;23.73;;;20.00;99.90;;;;;;5056989;28;20048;-85
2023/05/27 10:41:08;;;;;;;17.60;5.13;;;20.20;99.90;;;;;;5073473;28;20114;-87
2023/05/27 10:43:35;;;;;;;11.90;3.40;;;20.30;99.90;;;;;;5073586;28;20438;-86
2023/05/27 10:46:08;;;;;;;10.15;2.70;;;20.40;99.90;;;;;;5042391;28;20505;-88
2023/05/27 10:48:34;;;;;;;8.30;2.55;;;20.50;99.90;;;;;;5074730;28;20523;-89
2023/05/27 10:51:00;;;;;;;12.00;3.55;;;20.60;99.90;;;;;;5076304;28;20054;-88
2023/05/27 10:53:27;;;;;;;69.93;6.90;;;20.50;99.90;;;;;;5062170;28;20044;-88
2023/05/27 10:55:53;;;;;;;12.57;3.45;;;20.50;99.90;;;;;;5079465;28;20044;-89
2023/05/27 10:58:20;;;;;;;12.25;3.17;;;20.50;99.90;;;;;;5062686;28;20407;-85
2023/05/27 11:00:50;;;;;;;9.63;2.53;;;20.60;99.90;;;;;;5061829;28;20500;-93
2023/05/27 11:03:24;;;;;;;7.90;2.88;;;20.80;99.90;;;;;;5065901;28;20043;-90
2023/05/27 11:06:06;;;;;;;11.10;2.70;;;20.90;99.90;;;;;;5082315;28;20134;-89
2023/05/27 11:08:35;;;;;;;11.52;2.90;;;20.90;99.90;;;;;;5050816;28;20040;-87
2023/05/27 11:11:03;;;;;;;13.90;3.50;;;21.10;99.90;;;;;;5083128;28;20048;-87
2023/05/27 11:13:45;;;;;;;7.20;2.33;;;21.10;99.90;;;;;;5082757;28;20079;-87
2023/05/27 11:16:12;;;;;;;12.83;4.60;;;21.10;99.90;;;;;;5084150;28;20058;-88
2023/05/27 11:18:39;;;;;;;12.48;3.00;;;21.20;99.90;;;;;;5065299;28;20278;-88
2023/05/27 11:21:06;;;;;;;11.30;2.50;;;21.30;99.90;;;;;;5082215;28;20040;-87
2023/05/27 11:23:48;;;;;;;13.35;2.85;;;21.50;99.90;;;;;;5066045;28;20044;-93
2023/05/27 11:26:23;;;;;;;13.88;3.00;;;21.70;99.90;;;;;;5081900;28;20130;-88
2023/05/27 11:28:57;;;;;;;9.95;2.83;;;21.80;99.90;;;;;;5079519;28;20215;-86
2023/05/27 11:31:28;;;;;;;8.73;2.60;;;21.70;99.60;;;;;;5062641;28;20070;-86
2023/05/27 11:33:54;;;;;;;20.30;4.63;;;21.60;99.40;;;;;;5080664;28;20040;-89
2023/05/27 11:36:21;;;;;;;14.02;3.53;;;21.60;99.70;;;;;;5063305;28;20105;-87
2023/05/27 11:38:47;;;;;;;7.68;2.80;;;21.50;99.70;;;;;;5079960;28;20353;-87
2023/05/27 11:41:12;;;;;;;8.45;2.58;;;21.60;99.60;;;;;;5065079;28;20044;-88
2023/05/27 11:43:50;;;;;;;10.88;3.42;;;21.60;99.30;;;;;;5029375;28;20177;-87
2023/05/27 11:46:16;;;;;;;7.05;2.58;;;21.70;99.10;;;;;;5079987;28;20048;-89
2023/05/27 11:48:43;;;;;;;9.23;2.92;;;21.70;99.00;;;;;;5061532;28;20046;-86
2023/05/27 11:51:11;;;;;;;9.38;3.00;;;21.70;98.80;;;;;;5077980;28;20040;-85
2023/05/27 11:53:43;;;;;;;12.45;3.63;;;21.80;98.80;;;;;;5057859;28;20624;-85
2023/05/27 11:56:09;;;;;;;9.93;2.85;;;21.80;98.50;;;;;;5077954;28;20059;-84
2023/05/27 11:58:36;;;;;;;10.45;2.63;;;21.80;98.40;;;;;;5025856;28;20044;-87
2023/05/27 12:01:02;;;;;;;6.60;2.38;;;21.90;98.20;;;;;;5076402;28;20103;-86
2023/05/27 12:03:28;;;;;;;10.07;2.97;;;21.80;98.10;;;;;;5042636;28;20047;-86
2023/05/27 12:05:54;;;;;;;8.52;2.70;;;22.00;98.00;;;;;;5041489;28;20043;-86
2023/05/27 12:08:19;;;;;;;14.63;2.80;;;22.10;98.00;;;;;;5060550;28;20111;-89
2023/05/27 12:10:50;;;;;;;10.55;2.83;;;22.10;97.80;;;;;;5076438;28;20047;-88
2023/05/27 12:13:15;;;;;;;10.57;2.55;;;22.70;97.90;;;;;;5059139;28;20098;-86
2023/05/27 12:15:41;;;;;;;8.30;2.85;;;22.20;97.70;;;;;;5043232;28;20483;-87
2023/05/27 12:18:07;;;;;;;9.13;2.75;;;22.20;97.60;;;;;;5093546;28;20346;-86
2023/05/27 12:20:33;;;;;;;9.63;2.67;;;22.20;97.60;;;;;;5076336;28;20044;-88
2023/05/27 12:22:59;;;;;;;10.82;2.80;;;22.30;97.80;;;;;;5076256;28;20048;-87
2023/05/27 12:25:25;;;;;;;9.10;2.45;;;22.40;97.60;;;;;;5093675;28;20051;-87
2023/05/27 12:27:51;;;;;;;9.65;2.78;;;22.50;97.40;;;;;;5094323;28;20047;-87
2023/05/27 12:30:17;;;;;;;10.63;3.10;;;22.60;96.70;;;;;;5059717;28;20052;-89
2023/05/27 12:32:42;;;;;;;13.05;3.53;;;22.70;96.50;;;;;;5059510;28;20036;-85
2023/05/27 12:35:08;;;;;;;12.85;2.90;;;22.80;96.10;;;;;;5057855;28;20043;-88
2023/05/27 12:37:34;;;;;;;7.05;2.63;;;22.70;95.80;;;;;;5075709;28;20043;-88
2023/05/27 12:40:00;;;;;;;6.70;2.10;;;22.80;95.60;;;;;;5092558;28;20187;-82
2023/05/27 12:42:27;;;;;;;7.20;2.80;;;22.90;95.70;;;;;;5074139;28;20403;-85
2023/05/27 12:44:53;;;;;;;12.57;3.53;;;22.80;95.20;;;;;;5073989;28;20111;-87